createdAt,value
2022-09-28T00:01:21.803Z,7.90
2022-09-28T00:03:51.406Z,8.00
2022-09-28T00:06:21.526Z,8.00
2022-09-28T00:08:50.228Z,8.00
2022-09-28T00:11:18.988Z,8.00
2022-09-28T00:13:51.665Z,8.00
2022-09-28T00:16:20.991Z,7.90
2022-09-28T00:18:51.274Z,7.90
2022-09-28T00:21:22.246Z,7.90
2022-09-28T00:24:14.876Z,7.90
2022-09-28T00:26:56.528Z,8.00
2022-09-28T00:29:29.433Z,8.00
2022-09-28T00:32:02.148Z,7.90
2022-09-28T00:34:32.437Z,7.90
2022-09-28T00:37:00.434Z,7.90
2022-09-28T00:39:27.918Z,7.90
2022-09-28T00:41:55.213Z,7.90
2022-09-28T00:44:39.129Z,7.90
2022-09-28T00:47:38.094Z,7.90
2022-09-28T00:50:29.307Z,7.80
2022-09-28T00:53:25.621Z,7.70
2022-09-28T00:56:07.215Z,7.60
2022-09-28T00:58:38.336Z,7.60
2022-09-28T01:01:05.790Z,7.60
2022-09-28T01:03:33.802Z,7.50
2022-09-28T01:06:04.558Z,7.40
2022-09-28T01:08:34.165Z,7.40
2022-09-28T01:11:01.782Z,7.40
2022-09-28T01:13:32.357Z,7.40
2022-09-28T01:16:27.382Z,7.40
2022-09-28T01:19:15.333Z,7.40
2022-09-28T01:22:19.899Z,7.40
2022-09-28T01:24:48.781Z,7.30
2022-09-28T01:27:20.620Z,7.20
2022-09-28T01:30:14.775Z,7.10
2022-09-28T01:32:55.325Z,7.00
2022-09-28T01:35:47.703Z,7.00
2022-09-28T01:38:25.824Z,6.90
2022-09-28T01:40:54.012Z,6.90
2022-09-28T01:43:25.952Z,7.00
2022-09-28T01:46:11.273Z,7.00
2022-09-28T01:48:54.085Z,7.00
2022-09-28T01:51:36.258Z,6.90
2022-09-28T01:54:13.659Z,6.80
2022-09-28T01:56:54.619Z,6.80
2022-09-28T01:59:29.560Z,6.80
2022-09-28T02:02:12.655Z,6.80
2022-09-28T02:04:47.665Z,6.60
2022-09-28T02:07:24.454Z,6.50
2022-09-28T02:10:13.062Z,6.50
2022-09-28T02:12:51.932Z,6.60
2022-09-28T02:15:24.705Z,6.50
2022-09-28T02:17:52.491Z,6.50
2022-09-28T02:20:21.867Z,6.50
2022-09-28T02:22:56.886Z,6.60
2022-09-28T02:25:46.771Z,6.50
2022-09-28T02:28:14.558Z,6.50
2022-09-28T02:30:43.874Z,6.40
2022-09-28T02:33:21.564Z,6.30
2022-09-28T02:35:48.694Z,6.30
2022-09-28T02:38:17.531Z,6.30
2022-09-28T02:40:55.166Z,6.40
2022-09-28T02:43:47.107Z,6.40
2022-09-28T02:46:46.897Z,6.40
2022-09-28T02:49:48.438Z,6.30
2022-09-28T02:52:15.355Z,6.20
2022-09-28T02:54:53.400Z,6.20
2022-09-28T02:57:25.638Z,6.20
2022-09-28T03:00:08.116Z,6.20
2022-09-28T03:02:53.696Z,6.00
2022-09-28T03:05:59.221Z,6.00
2022-09-28T03:08:36.104Z,6.00
2022-09-28T03:11:09.350Z,6.00
2022-09-28T03:13:37.197Z,6.00
2022-09-28T03:16:16.567Z,5.90
2022-09-28T03:18:45.953Z,5.90
2022-09-28T03:21:14.368Z,5.90
2022-09-28T03:23:42.481Z,5.90
2022-09-28T03:26:13.452Z,5.80
2022-09-28T03:28:42.251Z,5.90
2022-09-28T03:31:14.487Z,5.80
2022-09-28T03:33:41.511Z,5.80
2022-09-28T03:36:09.834Z,5.80
2022-09-28T03:38:37.598Z,5.70
2022-09-28T03:41:05.348Z,5.70
2022-09-28T03:43:35.974Z,5.70
2022-09-28T03:46:04.441Z,5.60
2022-09-28T03:48:36.548Z,5.60
2022-09-28T03:51:07.020Z,5.60
2022-09-28T03:53:34.506Z,5.50
2022-09-28T03:56:12.455Z,5.40
2022-09-28T03:58:40.119Z,5.40
2022-09-28T04:01:16.397Z,5.40
2022-09-28T04:03:46.390Z,5.40
2022-09-28T04:06:14.512Z,5.50
2022-09-28T04:08:43.196Z,5.40
2022-09-28T04:11:10.539Z,5.40
2022-09-28T04:13:37.999Z,5.40
2022-09-28T04:16:07.703Z,5.40
2022-09-28T04:18:35.486Z,5.40
2022-09-28T04:21:17.543Z,5.40
2022-09-28T04:23:49.059Z,5.40
2022-09-28T04:26:25.983Z,5.40
2022-09-28T04:29:13.008Z,5.40
2022-09-28T04:31:47.723Z,5.40
2022-09-28T04:34:20.486Z,5.30
2022-09-28T04:36:48.541Z,5.30
2022-09-28T04:39:17.927Z,5.30
2022-09-28T04:41:49.043Z,5.10
2022-09-28T04:44:16.659Z,5.10
2022-09-28T04:46:45.724Z,5.20
2022-09-28T04:49:37.390Z,5.20
2022-09-28T04:52:07.932Z,5.20
2022-09-28T04:54:35.349Z,5.20
2022-09-28T04:57:04.014Z,5.20
2022-09-28T04:59:31.010Z,5.10
2022-09-28T05:01:58.086Z,5.00
2022-09-28T05:04:43.830Z,5.10
2022-09-28T05:07:29.482Z,5.10
2022-09-28T05:09:57.807Z,5.10
2022-09-28T05:12:24.845Z,5.10
2022-09-28T05:14:52.156Z,5.00
2022-09-28T05:17:19.233Z,5.10
2022-09-28T05:19:59.389Z,5.10
2022-09-28T05:22:26.531Z,5.10
2022-09-28T05:24:55.297Z,5.20
2022-09-28T05:27:24.396Z,5.10
2022-09-28T05:30:00.465Z,5.10
2022-09-28T05:32:30.610Z,5.10
2022-09-28T05:35:18.228Z,5.10
2022-09-28T05:37:47.524Z,5.10
2022-09-28T05:40:15.024Z,5.10
2022-09-28T05:42:42.401Z,5.10
2022-09-28T05:45:10.345Z,5.20
2022-09-28T05:47:46.392Z,5.20
2022-09-28T05:50:16.367Z,5.30
2022-09-28T05:52:44.118Z,5.40
2022-09-28T05:55:12.025Z,5.40
2022-09-28T05:57:39.087Z,5.50
2022-09-28T06:00:09.253Z,5.60
2022-09-28T06:03:08.633Z,5.60
2022-09-28T06:05:37.538Z,5.70
2022-09-28T06:08:06.338Z,5.80
2022-09-28T06:10:34.664Z,5.90
2022-09-28T06:13:02.085Z,6.10
2022-09-28T06:15:31.829Z,6.20
2022-09-28T06:18:03.090Z,6.30
2022-09-28T06:20:43.113Z,6.40
2022-09-28T06:23:14.852Z,6.40
2022-09-28T06:25:41.945Z,6.60
2022-09-28T06:28:14.660Z,6.70
2022-09-28T06:30:43.297Z,6.70
2022-09-28T06:33:14.463Z,6.80
2022-09-28T06:35:42.477Z,6.80
2022-09-28T06:38:10.255Z,6.90
2022-09-28T06:40:37.879Z,7.00
2022-09-28T06:43:12.192Z,7.10
2022-09-28T06:45:57.788Z,7.20
2022-09-28T06:48:36.628Z,7.20
2022-09-28T06:51:04.712Z,7.30
2022-09-28T06:53:33.796Z,7.40
2022-09-28T06:56:10.354Z,7.60
2022-09-28T06:58:37.656Z,7.80
2022-09-28T07:01:05.772Z,7.90
2022-09-28T07:03:49.024Z,8.10
2022-09-28T07:06:47.640Z,8.10
2022-09-28T07:09:35.066Z,8.40
2022-09-28T07:12:19.735Z,8.50
2022-09-28T07:15:03.976Z,8.70
2022-09-28T07:17:48.996Z,8.80
2022-09-28T07:20:22.533Z,8.90
2022-09-28T07:23:02.995Z,9.00
2022-09-28T07:25:54.844Z,9.10
2022-09-28T07:28:34.162Z,9.30
2022-09-28T07:31:20.888Z,9.50
2022-09-28T07:33:59.746Z,9.80
2022-09-28T07:36:36.640Z,10.10
2022-09-28T07:39:04.243Z,10.30
2022-09-28T07:41:34.054Z,10.40
2022-09-28T07:44:06.425Z,10.50
2022-09-28T07:46:36.947Z,10.70
2022-09-28T07:49:28.069Z,11.00
2022-09-28T07:52:13.636Z,11.50
2022-09-28T07:55:06.118Z,12.00
2022-09-28T07:57:56.216Z,12.80
2022-09-28T08:00:38.882Z,15.50
2022-09-28T08:03:06.215Z,18.50
2022-09-28T08:05:35.865Z,20.40
2022-09-28T08:08:03.018Z,22.30
2022-09-28T08:10:30.112Z,22.70
2022-09-28T08:13:27.017Z,23.50
2022-09-28T08:16:14.166Z,23.90
2022-09-28T08:18:51.514Z,23.20
2022-09-28T08:21:36.998Z,23.50
2022-09-28T08:24:04.167Z,22.60
2022-09-28T08:26:31.146Z,22.20
2022-09-28T08:28:58.194Z,21.60
2022-09-28T08:32:01.778Z,21.30
2022-09-28T08:34:39.054Z,21.60
2022-09-28T08:37:38.669Z,21.60
2022-09-28T08:40:25.879Z,21.40
2022-09-28T08:43:50.609Z,21.90
2022-09-28T08:46:33.176Z,21.40
2022-09-28T08:49:42.029Z,22.30
2022-09-28T08:52:35.762Z,22.80
2022-09-28T08:55:39.663Z,22.80
2022-09-28T08:58:15.137Z,21.40
2022-09-28T09:00:50.011Z,20.20
2022-09-28T09:03:32.626Z,21.20
2022-09-28T09:06:28.540Z,21.90
2022-09-28T09:09:30.742Z,21.10
2022-09-28T09:12:18.546Z,20.80
2022-09-28T09:15:31.929Z,20.20
2022-09-28T09:18:37.613Z,19.20
2022-09-28T09:21:42.111Z,17.60
2022-09-28T09:24:27.213Z,16.60
2022-09-28T09:27:37.696Z,16.20
2022-09-28T09:30:19.057Z,16.00
2022-09-28T09:32:56.432Z,15.80
2022-09-28T09:35:31.934Z,15.60
2022-09-28T09:38:23.328Z,15.40
2022-09-28T09:41:38.236Z,15.50
2022-09-28T09:45:04.782Z,15.70
2022-09-28T09:47:53.850Z,15.60
2022-09-28T09:50:46.755Z,15.80
2022-09-28T09:53:38.922Z,15.90
2022-09-28T09:56:19.371Z,15.60
2022-09-28T09:59:06.376Z,15.50
2022-09-28T10:01:39.855Z,15.10
2022-09-28T10:04:25.993Z,15.20
2022-09-28T10:07:06.060Z,15.10
2022-09-28T10:09:43.960Z,15.10
2022-09-28T10:12:34.415Z,15.00
2022-09-28T10:15:03.191Z,14.90
2022-09-28T10:17:33.148Z,14.60
2022-09-28T10:20:19.011Z,14.40
2022-09-28T10:23:23.636Z,14.20
2022-09-28T10:25:59.509Z,14.10
2022-09-28T10:28:49.475Z,14.10
2022-09-28T10:31:35.729Z,14.20
2022-09-28T10:34:05.686Z,14.10
2022-09-28T10:36:38.671Z,14.10
2022-09-28T10:39:06.636Z,14.10
2022-09-28T10:41:34.473Z,14.20
2022-09-28T10:44:17.543Z,14.00
2022-09-28T10:47:00.047Z,14.10
2022-09-28T10:49:44.408Z,14.40
2022-09-28T10:52:43.094Z,14.50
2022-09-28T10:55:26.042Z,14.30
2022-09-28T10:57:53.532Z,14.50
2022-09-28T11:00:40.529Z,14.60
2022-09-28T11:03:24.527Z,14.70
2022-09-28T11:05:59.527Z,14.90
2022-09-28T11:08:32.887Z,15.20
2022-09-28T11:11:13.011Z,15.20
2022-09-28T11:13:43.280Z,15.20
2022-09-28T11:16:28.749Z,15.30
2022-09-28T11:18:58.229Z,15.50
2022-09-28T11:21:28.504Z,15.50
2022-09-28T11:24:19.633Z,15.50
2022-09-28T11:26:52.623Z,15.30
2022-09-28T11:29:24.845Z,15.70
2022-09-28T11:32:15.814Z,15.90
2022-09-28T11:35:02.674Z,15.90
2022-09-28T11:37:48.430Z,15.60
2022-09-28T11:40:43.555Z,15.80
2022-09-28T11:43:40.487Z,15.90
2022-09-28T11:46:52.863Z,15.90
2022-09-28T11:49:19.641Z,15.90
2022-09-28T11:51:49.628Z,16.20
2022-09-28T11:54:33.826Z,15.90
2022-09-28T11:57:04.270Z,15.90
2022-09-28T11:59:36.988Z,15.70
2022-09-28T12:02:12.556Z,15.60
2022-09-28T12:04:55.968Z,15.90
2022-09-28T12:07:31.523Z,15.90
2022-09-28T12:10:32.095Z,16.00
2022-09-28T12:13:13.379Z,16.00
2022-09-28T12:16:32.822Z,16.20
2022-09-28T12:19:04.366Z,16.10
2022-09-28T12:21:54.036Z,16.10
2022-09-28T12:24:27.238Z,16.10
2022-09-28T12:27:07.971Z,16.20
2022-09-28T12:29:59.931Z,16.40
2022-09-28T12:32:30.824Z,16.60
2022-09-28T12:34:57.925Z,16.60
2022-09-28T12:37:40.183Z,16.80
2022-09-28T12:40:32.694Z,17.00
2022-09-28T12:43:31.179Z,16.50
2022-09-28T12:46:19.391Z,16.30
2022-09-28T12:49:36.701Z,16.20
2022-09-28T12:51:57.662Z,16.30
2022-09-28T12:54:59.050Z,16.30
2022-09-28T12:57:38.079Z,16.60
2022-09-28T13:00:23.591Z,16.60
2022-09-28T13:02:56.763Z,16.50
2022-09-28T13:05:35.743Z,16.50
2022-09-28T13:08:02.654Z,16.80
2022-09-28T13:10:50.837Z,16.80
2022-09-28T13:14:03.853Z,16.80
2022-09-28T13:17:03.325Z,16.90
2022-09-28T13:19:57.864Z,16.90
2022-09-28T13:22:44.428Z,16.90
2022-09-28T13:25:18.062Z,16.90
2022-09-28T13:28:13.156Z,17.00
2022-09-28T13:30:41.163Z,17.20
2022-09-28T13:33:15.696Z,17.10
2022-09-28T13:35:44.251Z,16.90
2022-09-28T13:38:17.535Z,16.80
2022-09-28T13:41:06.271Z,16.80
2022-09-28T13:44:06.681Z,16.70
2022-09-28T13:46:39.291Z,17.00
2022-09-28T13:49:18.470Z,16.80
2022-09-28T13:52:05.925Z,16.80
2022-09-28T13:55:10.783Z,16.50
2022-09-28T13:58:01.503Z,16.50
2022-09-28T14:00:38.483Z,16.30
2022-09-28T14:03:43.413Z,16.50
2022-09-28T14:06:32.470Z,16.40
2022-09-28T14:09:22.528Z,16.40
2022-09-28T14:11:59.896Z,16.40
2022-09-28T14:14:46.545Z,16.50
2022-09-28T14:17:19.360Z,16.50
2022-09-28T14:20:09.511Z,16.50
2022-09-28T14:22:48.415Z,16.50
2022-09-28T14:25:31.957Z,16.40
2022-09-28T14:28:14.070Z,16.30
2022-09-28T14:30:43.886Z,16.40
2022-09-28T14:33:32.155Z,16.40
2022-09-28T14:36:04.404Z,16.20
2022-09-28T14:38:53.084Z,16.20
2022-09-28T14:41:33.609Z,16.20
2022-09-28T14:44:16.447Z,15.90
2022-09-28T14:46:45.723Z,15.80
2022-09-28T14:49:19.655Z,15.60
2022-09-28T14:51:58.754Z,15.70
2022-09-28T14:54:29.713Z,15.60
2022-09-28T14:57:16.676Z,15.50
2022-09-28T14:59:46.298Z,15.50
2022-09-28T15:02:25.465Z,15.50
2022-09-28T15:05:00.198Z,15.50
2022-09-28T15:07:29.744Z,15.60
2022-09-28T15:09:57.972Z,15.60
2022-09-28T15:12:27.714Z,15.50
2022-09-28T15:14:56.575Z,15.40
2022-09-28T15:17:39.544Z,15.40
2022-09-28T15:20:17.218Z,15.50
2022-09-28T15:22:57.772Z,15.50
2022-09-28T15:25:27.457Z,15.30
2022-09-28T15:28:01.068Z,15.20
2022-09-28T15:30:36.683Z,15.10
2022-09-28T15:33:23.780Z,15.20
2022-09-28T15:35:58.164Z,15.20
2022-09-28T15:38:25.618Z,15.20
2022-09-28T15:40:52.912Z,15.20
2022-09-28T15:43:33.148Z,15.10
2022-09-28T15:46:22.429Z,14.90
2022-09-28T15:48:56.144Z,15.00
2022-09-28T15:51:28.463Z,14.90
2022-09-28T15:53:58.439Z,14.80
2022-09-28T15:56:26.704Z,14.80
2022-09-28T15:59:15.631Z,14.60
2022-09-28T16:01:44.282Z,14.50
2022-09-28T16:04:38.275Z,14.60
2022-09-28T16:07:29.161Z,14.70
2022-09-28T16:10:00.725Z,14.80
2022-09-28T16:12:51.101Z,14.80
2022-09-28T16:15:26.549Z,14.80
2022-09-28T16:18:07.102Z,14.80
2022-09-28T16:20:40.252Z,14.80
2022-09-28T16:23:15.993Z,14.70
2022-09-28T16:26:05.244Z,14.60
2022-09-28T16:28:37.677Z,14.60
2022-09-28T16:31:28.097Z,14.60
2022-09-28T16:33:58.979Z,14.60
2022-09-28T16:36:29.973Z,14.70
2022-09-28T16:38:57.326Z,14.70
2022-09-28T16:41:28.948Z,14.50
2022-09-28T16:44:00.911Z,14.50
2022-09-28T16:46:37.412Z,14.50
2022-09-28T16:49:06.759Z,14.40
2022-09-28T16:51:34.140Z,14.50
2022-09-28T16:54:37.444Z,14.40
2022-09-28T16:57:06.387Z,14.40
2022-09-28T16:59:34.118Z,14.30
2022-09-28T17:02:01.196Z,14.40
2022-09-28T17:04:28.691Z,14.40
2022-09-28T17:06:56.241Z,14.40
2022-09-28T17:09:23.989Z,14.30
2022-09-28T17:11:57.049Z,14.20
2022-09-28T17:14:24.503Z,14.10
2022-09-28T17:17:12.677Z,14.20
2022-09-28T17:19:41.561Z,14.20
2022-09-28T17:22:09.443Z,14.20
2022-09-28T17:24:37.104Z,14.20
2022-09-28T17:27:06.888Z,14.20
2022-09-28T17:29:33.947Z,14.10
2022-09-28T17:32:01.213Z,14.20
2022-09-28T17:34:28.194Z,14.20
2022-09-28T17:36:56.023Z,14.20
2022-09-28T17:39:25.082Z,14.20
2022-09-28T17:41:52.225Z,14.20
2022-09-28T17:44:20.631Z,14.20
2022-09-28T17:46:49.779Z,14.20
2022-09-28T17:49:17.495Z,14.20
2022-09-28T17:51:44.587Z,14.30
2022-09-28T17:54:13.736Z,14.30
2022-09-28T17:56:40.719Z,14.30
2022-09-28T17:59:13.087Z,14.40
2022-09-28T18:01:40.618Z,14.30
2022-09-28T18:04:09.569Z,14.30
2022-09-28T18:06:37.455Z,14.30
2022-09-28T18:09:05.691Z,14.30
2022-09-28T18:11:33.470Z,14.10
2022-09-28T18:14:00.902Z,14.10
2022-09-28T18:16:29.040Z,14.20
2022-09-28T18:18:56.748Z,14.20
2022-09-28T18:21:23.808Z,14.10
2022-09-28T18:23:51.265Z,14.00
2022-09-28T18:26:21.554Z,14.00
2022-09-28T18:28:48.699Z,13.90
2022-09-28T18:31:19.120Z,13.80
2022-09-28T18:33:46.316Z,13.90
2022-09-28T18:36:13.299Z,13.90
2022-09-28T18:38:40.461Z,14.00
2022-09-28T18:41:08.810Z,14.00
2022-09-28T18:43:36.581Z,14.10
2022-09-28T18:46:11.773Z,14.00
2022-09-28T18:48:40.661Z,14.00
2022-09-28T18:51:12.341Z,14.00
2022-09-28T18:53:39.948Z,14.00
2022-09-28T18:56:13.153Z,14.00
2022-09-28T18:58:42.369Z,14.00
2022-09-28T19:04:05.039Z,13.90
2022-09-28T19:06:32.513Z,13.90
2022-09-28T19:08:59.738Z,13.90
2022-09-28T19:11:27.795Z,13.80
2022-09-28T19:13:55.965Z,13.90
2022-09-28T19:16:25.932Z,13.90
2022-09-28T19:18:53.692Z,13.80
2022-09-28T19:21:21.251Z,13.70
2022-09-28T19:23:52.321Z,13.70
2022-09-28T19:26:22.511Z,13.80
2022-09-28T19:28:50.016Z,13.70
2022-09-28T19:31:17.529Z,13.70
2022-09-28T19:33:46.687Z,13.60
2022-09-28T19:36:23.744Z,13.60
2022-09-28T19:38:52.829Z,13.50
2022-09-28T19:41:43.728Z,13.60
2022-09-28T19:44:15.449Z,13.60
2022-09-28T19:46:42.983Z,13.60
2022-09-28T19:49:19.171Z,13.70
2022-09-28T19:54:37.531Z,13.70
2022-09-28T19:57:07.982Z,13.80
2022-09-28T19:59:37.016Z,13.80
2022-09-28T20:02:05.813Z,13.70
2022-09-28T20:04:33.033Z,13.60
2022-09-28T20:07:00.283Z,13.50
2022-09-28T20:09:27.225Z,13.50
2022-09-28T20:11:54.399Z,13.50
2022-09-28T20:14:23.440Z,13.60
2022-09-28T20:16:53.197Z,13.50
2022-09-28T20:19:21.919Z,13.60
2022-09-28T20:21:49.766Z,13.60
2022-09-28T20:24:17.316Z,13.60
2022-09-28T20:26:44.832Z,13.60
2022-09-28T20:29:12.016Z,13.70
2022-09-28T20:31:39.092Z,13.60
2022-09-28T20:34:06.501Z,13.60
2022-09-28T20:36:34.339Z,13.60
2022-09-28T20:39:02.373Z,13.60
2022-09-28T20:41:35.696Z,13.60
2022-09-28T20:44:05.993Z,13.60
2022-09-28T20:46:34.791Z,13.60
2022-09-28T20:49:02.152Z,13.50
2022-09-28T20:51:29.176Z,13.50
2022-09-28T20:53:58.251Z,13.60
2022-09-28T20:56:31.192Z,13.50
2022-09-28T20:58:58.294Z,13.50
2022-09-28T21:01:27.150Z,13.50
2022-09-28T21:04:00.114Z,13.50
2022-09-28T21:06:30.121Z,13.50
2022-09-28T21:08:57.502Z,13.50
2022-09-28T21:11:26.435Z,13.50
2022-09-28T21:13:55.334Z,13.40
2022-09-28T21:16:22.356Z,13.30
2022-09-28T21:18:49.397Z,13.30
2022-09-28T21:21:18.611Z,13.30
2022-09-28T21:23:46.322Z,13.20
2022-09-28T21:26:24.815Z,13.20
2022-09-28T21:28:53.839Z,13.10
2022-09-28T21:31:27.573Z,13.20
2022-09-28T21:33:56.097Z,13.30
2022-09-28T21:36:23.107Z,13.20
2022-09-28T21:38:50.239Z,13.30
2022-09-28T21:41:17.410Z,13.20
2022-09-28T21:43:46.027Z,13.20
2022-09-28T21:46:13.223Z,13.20
2022-09-28T21:48:40.345Z,13.20
2022-09-28T21:51:09.289Z,13.10
2022-09-28T21:53:37.842Z,13.10
2022-09-28T21:56:08.100Z,13.20
2022-09-28T21:58:35.938Z,13.20
2022-09-28T22:01:07.727Z,13.20
2022-09-28T22:03:36.447Z,13.20
2022-09-28T22:06:04.924Z,13.30
2022-09-28T22:08:33.101Z,13.30
2022-09-28T22:11:05.704Z,13.20
2022-09-28T22:13:40.691Z,13.20
2022-09-28T22:16:08.673Z,13.20
2022-09-28T22:18:36.067Z,13.20
2022-09-28T22:21:11.729Z,13.20
2022-09-28T22:23:39.370Z,13.20
2022-09-28T22:26:18.097Z,13.20
2022-09-28T22:28:52.731Z,13.20
2022-09-28T22:31:22.114Z,13.20
2022-09-28T22:33:49.846Z,13.20
2022-09-28T22:36:17.069Z,13.20
2022-09-28T22:38:45.000Z,13.20
2022-09-28T22:41:12.860Z,13.20
2022-09-28T22:43:39.785Z,13.20
2022-09-28T22:46:16.614Z,13.30
2022-09-28T22:48:58.151Z,13.30
2022-09-28T22:51:27.652Z,13.30
2022-09-28T22:53:54.787Z,13.30
2022-09-28T22:56:21.911Z,13.30
2022-09-28T22:58:49.115Z,13.20
2022-09-28T23:01:21.539Z,13.20
2022-09-28T23:03:49.399Z,13.20
2022-09-28T23:06:18.116Z,13.30
2022-09-28T23:08:46.864Z,13.30
2022-09-28T23:11:14.114Z,13.30
2022-09-28T23:13:41.358Z,13.40
2022-09-28T23:16:12.821Z,13.40
2022-09-28T23:18:43.811Z,13.40
2022-09-28T23:21:16.492Z,13.40
2022-09-28T23:23:45.311Z,13.40
2022-09-28T23:26:21.235Z,13.40
2022-09-28T23:28:48.783Z,13.40
2022-09-28T23:31:21.631Z,13.40
2022-09-28T23:33:49.016Z,13.40
2022-09-28T23:36:16.895Z,13.30
2022-09-28T23:38:44.174Z,13.30
2022-09-28T23:41:11.484Z,13.40
2022-09-28T23:43:38.588Z,13.30
2022-09-28T23:46:06.091Z,13.30
2022-09-28T23:48:33.551Z,13.30
2022-09-28T23:51:00.684Z,13.30
2022-09-28T23:53:28.461Z,13.30
2022-09-28T23:55:55.821Z,13.30
2022-09-28T23:58:22.891Z,13.30
